createdAt,value
2018-07-22T00:00:22.415Z,87.07
2018-07-22T00:02:51.211Z,87.11
2018-07-22T00:05:20.111Z,87.35
2018-07-22T00:07:48.994Z,87.58
2018-07-22T00:10:27.578Z,87.05
2018-07-22T00:13:00.818Z,86.39
2018-07-22T00:15:29.817Z,86.35
2018-07-22T00:17:58.930Z,86.57
2018-07-22T00:20:27.882Z,87.00
2018-07-22T00:22:56.748Z,87.01
2018-07-22T00:25:25.770Z,87.22
2018-07-22T00:27:54.590Z,86.19
2018-07-22T00:30:23.394Z,87.03
2018-07-22T00:32:52.245Z,85.57
2018-07-22T00:35:21.766Z,85.40
2018-07-22T00:37:50.500Z,85.73
2018-07-22T00:40:19.532Z,86.14
2018-07-22T00:42:48.438Z,86.18
2018-07-22T00:45:17.179Z,86.30
2018-07-22T00:47:46.074Z,86.31
2018-07-22T00:50:14.924Z,86.52
2018-07-22T00:52:43.765Z,85.66
2018-07-22T00:55:12.670Z,85.92
2018-07-22T00:57:41.766Z,86.23
2018-07-22T01:00:10.675Z,86.08
2018-07-22T01:02:39.560Z,85.28
2018-07-22T01:05:08.522Z,85.76
2018-07-22T01:07:37.594Z,85.54
2018-07-22T01:10:06.534Z,86.01
2018-07-22T01:12:35.325Z,86.06
2018-07-22T01:15:04.346Z,86.05
2018-07-22T01:17:33.126Z,84.89
2018-07-22T01:20:02.121Z,84.90
2018-07-22T01:22:31.056Z,85.25
2018-07-22T01:25:00.449Z,85.65
2018-07-22T01:27:29.193Z,85.87
2018-07-22T01:29:58.129Z,85.63
2018-07-22T01:32:27.017Z,85.68
2018-07-22T01:34:56.813Z,85.59
2018-07-22T01:37:25.715Z,85.40
2018-07-22T01:39:54.491Z,86.08
2018-07-22T01:42:23.345Z,86.45
2018-07-22T01:44:52.214Z,85.57
2018-07-22T01:47:21.029Z,85.36
2018-07-22T01:49:49.806Z,86.05
2018-07-22T01:52:21.100Z,86.39
2018-07-22T01:54:49.877Z,85.85
2018-07-22T01:57:18.754Z,86.12
2018-07-22T01:59:47.706Z,85.58
2018-07-22T02:02:16.682Z,85.70
2018-07-22T02:04:45.439Z,85.72
2018-07-22T02:07:14.368Z,85.59
2018-07-22T02:09:43.343Z,85.83
2018-07-22T02:12:12.124Z,86.18
2018-07-22T02:14:41.179Z,86.64
2018-07-22T02:17:10.353Z,86.33
2018-07-22T02:19:39.365Z,86.21
2018-07-22T02:22:08.291Z,86.48
2018-07-22T02:24:37.361Z,86.27
2018-07-22T02:27:06.217Z,86.31
2018-07-22T02:29:35.157Z,86.45
2018-07-22T02:32:06.429Z,85.91
2018-07-22T02:34:35.396Z,85.92
2018-07-22T02:37:04.495Z,85.77
2018-07-22T02:39:33.338Z,85.87
2018-07-22T02:42:02.316Z,85.54
2018-07-22T02:44:31.245Z,85.39
2018-07-22T02:47:00.131Z,85.55
2018-07-22T02:49:28.810Z,85.69
2018-07-22T02:51:57.875Z,85.35
2018-07-22T02:54:26.698Z,85.07
2018-07-22T02:56:55.663Z,86.04
2018-07-22T02:59:24.611Z,85.51
2018-07-22T03:01:53.502Z,85.10
2018-07-22T03:04:22.378Z,85.29
2018-07-22T03:06:51.355Z,85.15
2018-07-22T03:09:20.303Z,85.97
2018-07-22T03:11:49.078Z,85.96
2018-07-22T03:14:17.847Z,85.58
2018-07-22T03:16:47.132Z,86.03
2018-07-22T03:19:16.151Z,87.16
2018-07-22T03:21:44.957Z,86.72
2018-07-22T03:24:14.003Z,87.10
2018-07-22T03:26:42.790Z,87.27
2018-07-22T03:29:11.952Z,87.84
2018-07-22T03:31:41.027Z,87.37
2018-07-22T03:34:10.133Z,86.96
2018-07-22T03:36:39.114Z,86.36
2018-07-22T03:39:10.034Z,86.67
2018-07-22T03:41:39.428Z,86.45
2018-07-22T03:44:08.630Z,85.80
2018-07-22T03:46:37.604Z,85.84
2018-07-22T03:49:06.667Z,85.74
2018-07-22T03:51:35.450Z,85.75
2018-07-22T03:54:04.278Z,85.10
2018-07-22T03:56:33.161Z,85.56
2018-07-22T03:59:02.018Z,85.78
2018-07-22T04:01:31.098Z,85.16
2018-07-22T04:04:00.157Z,85.16
2018-07-22T04:06:29.393Z,85.48
2018-07-22T04:08:58.413Z,85.44
2018-07-22T04:11:27.277Z,85.39
2018-07-22T04:13:56.468Z,85.36
2018-07-22T04:16:25.386Z,85.24
2018-07-22T04:18:54.865Z,85.20
2018-07-22T04:21:24.795Z,84.51
2018-07-22T04:23:53.728Z,85.08
2018-07-22T04:26:22.833Z,85.74
2018-07-22T04:28:52.058Z,85.37
2018-07-22T04:31:21.155Z,85.00
2018-07-22T04:33:50.171Z,85.34
2018-07-22T04:36:19.241Z,85.41
2018-07-22T04:38:48.174Z,85.22
2018-07-22T04:41:16.967Z,84.86
2018-07-22T04:43:45.933Z,85.01
2018-07-22T04:46:14.928Z,84.52
2018-07-22T04:48:43.876Z,84.65
2018-07-22T04:51:12.751Z,84.64
2018-07-22T04:53:41.537Z,84.85
2018-07-22T04:56:10.513Z,84.43
2018-07-22T04:58:39.383Z,84.73
2018-07-22T05:01:08.262Z,84.87
2018-07-22T05:03:37.289Z,84.98
2018-07-22T05:06:06.584Z,84.46
2018-07-22T05:08:35.309Z,84.15
2018-07-22T05:11:04.173Z,82.74
2018-07-22T05:13:33.111Z,83.33
2018-07-22T05:16:02.051Z,83.00
2018-07-22T05:18:30.934Z,83.36
2018-07-22T05:21:00.014Z,83.14
2018-07-22T05:23:28.841Z,82.99
2018-07-22T05:25:57.670Z,82.37
2018-07-22T05:28:26.489Z,82.27
2018-07-22T05:30:55.295Z,81.55
2018-07-22T05:33:24.294Z,81.98
2018-07-22T05:35:53.337Z,81.59
2018-07-22T05:38:22.280Z,82.23
2018-07-22T05:40:51.137Z,81.75
2018-07-22T05:43:19.925Z,82.07
2018-07-22T05:45:48.669Z,82.27
2018-07-22T05:48:17.746Z,81.64
2018-07-22T05:50:46.527Z,82.01
2018-07-22T05:53:15.316Z,81.14
2018-07-22T05:55:44.039Z,81.28
2018-07-22T05:58:12.804Z,81.61
2018-07-22T06:00:41.710Z,82.25
2018-07-22T06:03:10.601Z,81.87
2018-07-22T06:05:39.353Z,82.48
2018-07-22T06:08:08.266Z,82.03
2018-07-22T06:10:37.053Z,82.30
2018-07-22T06:13:05.941Z,82.03
2018-07-22T06:15:34.733Z,82.52
2018-07-22T06:18:03.591Z,81.94
2018-07-22T06:20:32.391Z,82.33
2018-07-22T06:23:01.355Z,83.01
2018-07-22T06:25:30.206Z,82.10
2018-07-22T06:27:59.066Z,81.83
2018-07-22T06:30:27.882Z,82.07
2018-07-22T06:32:56.646Z,82.04
2018-07-22T06:35:25.537Z,82.37
2018-07-22T06:37:54.382Z,82.08
2018-07-22T06:40:23.115Z,83.15
2018-07-22T06:42:52.201Z,83.29
2018-07-22T06:45:21.221Z,83.37
2018-07-22T06:47:50.147Z,83.47
2018-07-22T06:50:18.995Z,84.15
2018-07-22T06:52:48.014Z,84.68
2018-07-22T06:55:17.087Z,85.03
2018-07-22T06:57:45.882Z,85.60
2018-07-22T07:00:14.638Z,85.27
2018-07-22T07:02:43.407Z,85.40
2018-07-22T07:05:12.262Z,86.35
2018-07-22T07:07:41.150Z,86.33
2018-07-22T07:10:10.066Z,86.33
2018-07-22T07:12:38.786Z,86.08
2018-07-22T07:15:07.798Z,84.50
2018-07-22T07:17:36.702Z,84.28
2018-07-22T07:20:06.018Z,84.29
2018-07-22T07:22:35.085Z,84.32
2018-07-22T07:25:04.085Z,85.13
2018-07-22T07:27:32.966Z,85.71
2018-07-22T07:30:01.759Z,85.46
2018-07-22T07:32:30.654Z,85.49
2018-07-22T07:34:59.729Z,85.38
2018-07-22T07:37:29.433Z,85.11
2018-07-22T07:39:58.346Z,84.26
2018-07-22T07:42:27.165Z,84.92
2018-07-22T07:44:56.298Z,84.78
2018-07-22T07:47:25.752Z,84.92
2018-07-22T07:49:54.686Z,85.35
2018-07-22T07:52:23.619Z,85.26
2018-07-22T07:54:52.490Z,86.31
2018-07-22T07:57:21.354Z,85.85
2018-07-22T07:59:53.373Z,84.92
2018-07-22T08:02:23.965Z,85.31
2018-07-22T08:04:53.008Z,84.94
2018-07-22T08:07:21.996Z,84.90
2018-07-22T08:09:50.893Z,84.97
2018-07-22T08:12:19.913Z,84.69
2018-07-22T08:14:49.466Z,84.41
2018-07-22T08:17:18.345Z,84.17
2018-07-22T08:19:47.192Z,82.30
2018-07-22T08:22:16.351Z,83.60
2018-07-22T08:24:45.360Z,84.02
2018-07-22T08:27:14.522Z,84.15
2018-07-22T08:29:43.605Z,83.11
2018-07-22T08:32:13.517Z,83.31
2018-07-22T08:34:42.477Z,83.84
2018-07-22T08:37:11.459Z,84.42
2018-07-22T08:39:40.674Z,84.54
2018-07-22T08:42:09.924Z,83.67
2018-07-22T08:44:38.826Z,84.51
2018-07-22T08:47:07.825Z,84.65
2018-07-22T08:49:36.802Z,84.31
2018-07-22T08:52:06.051Z,84.18
2018-07-22T08:54:35.062Z,83.12
2018-07-22T08:57:04.231Z,83.20
2018-07-22T08:59:33.134Z,83.26
2018-07-22T09:02:02.227Z,83.58
2018-07-22T09:04:31.225Z,84.08
2018-07-22T09:07:00.829Z,82.85
2018-07-22T09:09:29.690Z,81.40
2018-07-22T09:11:58.679Z,82.72
2018-07-22T09:14:27.578Z,82.13
2018-07-22T09:16:56.605Z,82.39
2018-07-22T09:19:25.355Z,81.77
2018-07-22T09:21:54.354Z,81.17
2018-07-22T09:24:23.369Z,82.26
2018-07-22T09:26:52.410Z,82.79
2018-07-22T09:29:21.332Z,81.97
2018-07-22T09:31:50.280Z,82.01
2018-07-22T09:34:19.177Z,81.98
2018-07-22T09:36:48.042Z,81.65
2018-07-22T09:39:17.231Z,82.62
2018-07-22T09:41:46.076Z,83.20
2018-07-22T09:44:14.929Z,83.97
2018-07-22T09:46:45.765Z,83.63
2018-07-22T09:49:14.623Z,83.25
2018-07-22T09:51:43.630Z,83.01
2018-07-22T09:54:12.377Z,82.21
2018-07-22T09:56:41.335Z,82.33
2018-07-22T09:59:10.117Z,82.86
2018-07-22T10:01:39.151Z,81.73
2018-07-22T10:04:08.328Z,81.43
2018-07-22T10:06:38.205Z,81.62
2018-07-22T10:09:11.167Z,81.55
2018-07-22T10:11:40.201Z,82.82
2018-07-22T10:14:09.057Z,81.09
2018-07-22T10:16:37.908Z,81.70
2018-07-22T10:19:06.961Z,80.56
2018-07-22T10:21:35.838Z,80.59
2018-07-22T10:24:04.746Z,80.97
2018-07-22T10:26:33.586Z,78.88
2018-07-22T10:29:02.431Z,78.43
2018-07-22T10:31:31.202Z,76.93
2018-07-22T10:34:00.124Z,78.03
2018-07-22T10:36:29.018Z,77.05
2018-07-22T10:38:57.773Z,77.32
2018-07-22T10:41:26.669Z,78.14
2018-07-22T10:43:55.425Z,78.37
2018-07-22T10:46:24.400Z,78.18
2018-07-22T10:48:53.456Z,79.09
2018-07-22T10:51:22.319Z,79.34
2018-07-22T10:53:51.086Z,79.04
2018-07-22T10:56:19.990Z,77.24
2018-07-22T10:58:49.280Z,76.91
2018-07-22T11:01:18.431Z,78.27
2018-07-22T11:03:47.399Z,78.17
2018-07-22T11:06:16.191Z,78.67
2018-07-22T11:08:46.364Z,76.70
2018-07-22T11:11:15.106Z,76.74
2018-07-22T11:13:44.029Z,74.13
2018-07-22T11:16:13.033Z,74.20
2018-07-22T11:18:41.889Z,73.48
2018-07-22T11:21:10.754Z,72.57
2018-07-22T11:23:39.571Z,70.46
2018-07-22T11:26:08.438Z,70.25
2018-07-22T11:28:37.590Z,70.45
2018-07-22T11:31:07.477Z,70.15
2018-07-22T11:33:36.312Z,71.27
2018-07-22T11:36:05.641Z,71.45
2018-07-22T11:38:34.473Z,70.77
2018-07-22T11:41:03.426Z,69.31
2018-07-22T11:43:32.359Z,69.82
2018-07-22T11:46:01.196Z,70.05
2018-07-22T11:48:30.038Z,69.42
2018-07-22T11:50:58.957Z,68.81
2018-07-22T11:53:27.920Z,69.13
2018-07-22T11:55:56.760Z,70.23
2018-07-22T11:58:25.613Z,68.48
2018-07-22T12:00:54.398Z,69.18
2018-07-22T12:03:23.751Z,70.89
2018-07-22T12:05:52.939Z,70.28
2018-07-22T12:08:21.815Z,70.82
2018-07-22T12:10:51.261Z,69.88
2018-07-22T12:13:20.124Z,70.13
2018-07-22T12:15:49.091Z,68.68
2018-07-22T12:18:17.961Z,69.38
2018-07-22T12:20:46.909Z,69.71
2018-07-22T12:23:15.735Z,67.68
2018-07-22T12:25:44.748Z,68.33
2018-07-22T12:28:13.750Z,69.17
2018-07-22T12:30:43.052Z,69.94
2018-07-22T12:33:12.607Z,69.12
2018-07-22T12:35:41.633Z,68.16
2018-07-22T12:38:10.429Z,69.60
2018-07-22T12:40:39.405Z,69.11
2018-07-22T12:43:08.397Z,68.31
2018-07-22T12:45:37.390Z,67.13
2018-07-22T12:48:06.524Z,67.11
2018-07-22T12:50:35.266Z,68.46
2018-07-22T12:53:04.118Z,67.20
2018-07-22T12:55:33.046Z,68.43
2018-07-22T12:58:01.926Z,69.14
2018-07-22T13:00:30.666Z,69.04
2018-07-22T13:02:59.421Z,69.94
2018-07-22T13:05:28.203Z,68.87
2018-07-22T13:07:57.037Z,68.45
2018-07-22T13:10:26.146Z,68.82
2018-07-22T13:12:55.399Z,67.99
2018-07-22T13:15:24.207Z,68.85
2018-07-22T13:17:53.033Z,68.24
2018-07-22T13:20:21.948Z,67.62
2018-07-22T13:22:50.755Z,68.19
2018-07-22T13:25:19.622Z,68.03
2018-07-22T13:27:48.554Z,67.85
2018-07-22T13:30:17.310Z,66.67
2018-07-22T13:32:46.339Z,67.19
2018-07-22T13:35:15.367Z,68.03
2018-07-22T13:37:44.228Z,67.24
2018-07-22T13:40:13.263Z,66.62
2018-07-22T13:42:42.007Z,65.93
2018-07-22T13:45:11.113Z,67.38
2018-07-22T13:47:39.758Z,66.82
2018-07-22T13:50:08.958Z,66.43
2018-07-22T13:52:37.873Z,66.70
2018-07-22T13:55:06.782Z,67.38
2018-07-22T13:57:35.563Z,65.98
2018-07-22T14:00:04.509Z,65.79
2018-07-22T14:02:33.194Z,65.50
2018-07-22T14:05:02.025Z,64.94
2018-07-22T14:07:31.035Z,65.04
2018-07-22T14:09:59.827Z,66.12
2018-07-22T14:12:28.845Z,65.54
2018-07-22T14:14:57.686Z,64.93
2018-07-22T14:17:26.410Z,65.25
2018-07-22T14:19:55.321Z,64.51
2018-07-22T14:22:24.146Z,65.06
2018-07-22T14:24:53.049Z,65.78
2018-07-22T14:27:22.029Z,65.50
2018-07-22T14:29:51.061Z,65.26
2018-07-22T14:32:19.781Z,64.27
2018-07-22T14:34:48.601Z,64.27
2018-07-22T14:37:17.428Z,64.62
2018-07-22T14:39:46.215Z,66.39
2018-07-22T14:42:14.991Z,65.55
2018-07-22T14:44:43.848Z,66.02
2018-07-22T14:47:12.723Z,65.29
2018-07-22T14:49:41.506Z,64.65
2018-07-22T14:52:10.259Z,64.97
2018-07-22T14:54:39.057Z,63.32
2018-07-22T14:57:07.953Z,62.80
2018-07-22T14:59:36.722Z,63.12
2018-07-22T15:02:05.728Z,62.48
2018-07-22T15:04:34.990Z,63.22
2018-07-22T15:07:03.930Z,63.40
2018-07-22T15:09:32.710Z,63.32
2018-07-22T15:12:01.718Z,62.76
2018-07-22T15:14:30.669Z,62.76
2018-07-22T15:16:59.820Z,61.23
2018-07-22T15:19:28.814Z,63.13
2018-07-22T15:21:57.662Z,64.60
2018-07-22T15:24:26.482Z,64.89
2018-07-22T15:26:55.550Z,64.95
2018-07-22T15:29:25.031Z,64.21
2018-07-22T15:31:53.735Z,64.52
2018-07-22T15:34:22.447Z,62.88
2018-07-22T15:36:51.480Z,63.43
2018-07-22T15:39:20.452Z,63.64
2018-07-22T15:41:49.349Z,62.79
2018-07-22T15:44:18.125Z,62.80
2018-07-22T15:46:47.154Z,63.42
2018-07-22T15:49:16.176Z,63.52
2018-07-22T15:51:45.521Z,63.85
2018-07-22T15:54:14.449Z,63.23
2018-07-22T15:56:43.564Z,63.06
2018-07-22T15:59:12.560Z,63.15
2018-07-22T16:01:41.456Z,64.13
2018-07-22T16:04:10.444Z,64.85
2018-07-22T16:06:39.249Z,64.40
2018-07-22T16:09:10.101Z,65.47
2018-07-22T16:11:38.929Z,65.09
2018-07-22T16:14:07.880Z,65.21
2018-07-22T16:16:37.765Z,65.50
2018-07-22T16:19:06.863Z,65.17
2018-07-22T16:21:35.893Z,65.93
2018-07-22T16:24:04.897Z,65.60
2018-07-22T16:26:33.950Z,66.56
2018-07-22T16:29:02.865Z,66.52
2018-07-22T16:31:32.246Z,66.19
2018-07-22T16:34:01.045Z,66.76
2018-07-22T16:36:30.104Z,66.01
2018-07-22T16:38:59.549Z,66.10
2018-07-22T16:41:28.893Z,66.93
2018-07-22T16:44:03.271Z,65.66
2018-07-22T16:46:32.334Z,66.88
2018-07-22T16:49:01.087Z,66.45
2018-07-22T16:51:30.121Z,67.32
2018-07-22T16:53:59.251Z,67.53
2018-07-22T16:56:28.070Z,67.52
2018-07-22T16:58:57.429Z,67.07
2018-07-22T17:01:26.497Z,67.01
2018-07-22T17:03:55.377Z,67.80
2018-07-22T17:06:24.243Z,67.09
2018-07-22T17:08:53.194Z,67.48
2018-07-22T17:11:22.057Z,67.65
2018-07-22T17:13:50.758Z,67.69
2018-07-22T17:16:19.658Z,66.94
2018-07-22T17:18:48.619Z,67.57
2018-07-22T17:21:17.758Z,67.62
2018-07-22T17:23:46.565Z,67.75
2018-07-22T17:26:15.550Z,67.63
2018-07-22T17:28:44.449Z,68.12
2018-07-22T17:31:13.262Z,67.57
2018-07-22T17:33:42.418Z,67.85
2018-07-22T17:36:11.241Z,67.70
2018-07-22T17:38:40.102Z,67.60
2018-07-22T17:41:08.806Z,67.48
2018-07-22T17:43:37.817Z,67.69
2018-07-22T17:46:06.700Z,67.92
2018-07-22T17:48:35.450Z,68.36
2018-07-22T17:51:04.371Z,67.85
2018-07-22T17:53:33.251Z,68.11
2018-07-22T17:56:02.217Z,69.04
2018-07-22T17:58:31.137Z,68.38
2018-07-22T18:01:00.138Z,69.03
2018-07-22T18:03:31.565Z,69.39
2018-07-22T18:06:00.878Z,69.21
2018-07-22T18:08:29.942Z,69.27
2018-07-22T18:10:58.917Z,68.60
2018-07-22T18:13:28.094Z,69.13
2018-07-22T18:15:57.696Z,69.86
2018-07-22T18:18:26.776Z,69.49
2018-07-22T18:20:55.477Z,69.51
2018-07-22T18:23:24.363Z,69.56
2018-07-22T18:25:53.426Z,69.85
2018-07-22T18:28:22.454Z,69.83
2018-07-22T18:30:51.555Z,70.21
2018-07-22T18:33:20.422Z,69.68
2018-07-22T18:35:49.338Z,69.77
2018-07-22T18:38:18.186Z,69.42
2018-07-22T18:40:47.115Z,69.84
2018-07-22T18:43:16.170Z,69.79
2018-07-22T18:45:45.355Z,69.92
2018-07-22T18:48:14.211Z,70.04
2018-07-22T18:50:43.270Z,69.95
2018-07-22T18:53:12.324Z,69.40
2018-07-22T18:55:41.304Z,69.20
2018-07-22T18:58:10.673Z,69.61
2018-07-22T19:00:39.658Z,69.36
2018-07-22T19:03:09.432Z,69.32
2018-07-22T19:05:39.229Z,69.48
2018-07-22T19:08:08.911Z,69.46
2018-07-22T19:10:39.024Z,69.68
2018-07-22T19:13:08.230Z,69.28
2018-07-22T19:15:37.702Z,69.41
2018-07-22T19:18:06.510Z,69.89
2018-07-22T19:20:35.244Z,69.56
2018-07-22T19:23:04.724Z,69.78
2018-07-22T19:25:34.220Z,69.71
2018-07-22T19:28:03.099Z,69.22
2018-07-22T19:30:32.140Z,69.29
2018-07-22T19:33:01.040Z,69.75
2018-07-22T19:35:29.902Z,69.63
2018-07-22T19:37:58.928Z,69.91
2018-07-22T19:40:28.334Z,70.12
2018-07-22T19:42:57.673Z,70.23
2018-07-22T19:45:26.802Z,69.99
2018-07-22T19:47:56.939Z,70.42
2018-07-22T19:50:25.943Z,70.77
2018-07-22T19:52:54.751Z,70.66
2018-07-22T19:55:23.772Z,70.84
2018-07-22T19:57:52.588Z,70.61
2018-07-22T20:00:21.866Z,70.16
2018-07-22T20:02:50.778Z,70.99
2018-07-22T20:05:19.742Z,70.58
2018-07-22T20:07:49.254Z,70.60
2018-07-22T20:10:18.087Z,69.52
2018-07-22T20:12:46.976Z,69.82
2018-07-22T20:15:15.907Z,69.83
2018-07-22T20:17:44.647Z,70.15
2018-07-22T20:20:13.915Z,70.54
2018-07-22T20:22:42.721Z,70.39
2018-07-22T20:25:11.538Z,70.81
2018-07-22T20:27:40.477Z,70.80
2018-07-22T20:30:09.601Z,71.39
2018-07-22T20:32:38.439Z,71.22
2018-07-22T20:35:07.507Z,71.27
2018-07-22T20:37:36.552Z,72.22
2018-07-22T20:40:05.942Z,72.92
2018-07-22T20:42:34.867Z,72.68
2018-07-22T20:45:04.089Z,72.72
2018-07-22T20:47:33.369Z,71.54
2018-07-22T20:50:02.371Z,71.65
2018-07-22T20:52:31.431Z,72.46
2018-07-22T20:55:00.359Z,72.35
2018-07-22T20:57:29.129Z,72.11
2018-07-22T20:59:58.039Z,71.96
2018-07-22T21:02:26.839Z,72.15
2018-07-22T21:04:55.808Z,71.86
2018-07-22T21:07:24.539Z,72.64
2018-07-22T21:09:53.221Z,73.19
2018-07-22T21:12:44.373Z,71.91
2018-07-22T21:15:14.169Z,73.04
2018-07-22T21:17:43.856Z,73.19
2018-07-22T21:22:40.487Z,73.78
2018-07-22T21:25:09.456Z,73.27
2018-07-22T21:27:38.242Z,73.67
2018-07-22T21:30:09.142Z,74.33
2018-07-22T21:32:38.397Z,74.50
2018-07-22T21:35:07.556Z,73.68
2018-07-22T21:37:36.608Z,73.85
2018-07-22T21:40:06.618Z,73.42
2018-07-22T21:42:35.421Z,73.58
2018-07-22T21:45:05.078Z,73.74
2018-07-22T21:47:34.403Z,73.73
2018-07-22T21:50:03.416Z,73.90
2018-07-22T21:52:32.242Z,73.84
2018-07-22T21:55:01.477Z,73.71
2018-07-22T21:57:30.771Z,74.16
2018-07-22T21:59:59.512Z,74.50
2018-07-22T22:02:35.335Z,74.58
2018-07-22T22:05:04.936Z,75.80
2018-07-22T22:07:34.060Z,75.00
2018-07-22T22:10:03.094Z,74.59
2018-07-22T22:12:31.994Z,74.11
2018-07-22T22:15:00.962Z,74.51
2018-07-22T22:17:29.828Z,74.98
2018-07-22T22:19:58.654Z,74.09
2018-07-22T22:22:27.439Z,74.82
2018-07-22T22:24:56.374Z,74.69
2018-07-22T22:27:25.294Z,75.22
2018-07-22T22:29:54.253Z,74.30
2018-07-22T22:32:23.036Z,74.81
2018-07-22T22:34:52.105Z,74.51
2018-07-22T22:37:21.114Z,74.95
2018-07-22T22:39:50.123Z,74.91
2018-07-22T22:42:18.881Z,74.59
2018-07-22T22:44:47.809Z,75.64
2018-07-22T22:47:16.730Z,75.88
2018-07-22T22:49:45.573Z,76.34
2018-07-22T22:52:14.642Z,75.31
2018-07-22T22:54:43.505Z,75.32
2018-07-22T22:57:12.437Z,74.57
2018-07-22T22:59:41.455Z,75.28
2018-07-22T23:02:10.406Z,75.64
2018-07-22T23:04:39.265Z,75.70
2018-07-22T23:07:08.154Z,75.13
2018-07-22T23:09:37.038Z,74.99
2018-07-22T23:12:05.770Z,75.20
2018-07-22T23:14:34.946Z,75.92
2018-07-22T23:17:03.787Z,76.26
2018-07-22T23:19:32.708Z,76.74
2018-07-22T23:22:01.553Z,76.86
2018-07-22T23:24:30.526Z,75.99
2018-07-22T23:26:59.785Z,76.28
2018-07-22T23:29:28.834Z,76.18
2018-07-22T23:31:57.768Z,76.88
2018-07-22T23:34:26.615Z,77.44
2018-07-22T23:36:55.478Z,78.24
2018-07-22T23:39:24.354Z,77.59
2018-07-22T23:41:53.079Z,77.40
2018-07-22T23:44:21.945Z,78.01
2018-07-22T23:46:51.426Z,77.36
2018-07-22T23:49:20.190Z,78.07
2018-07-22T23:51:48.960Z,78.53
2018-07-22T23:54:17.816Z,78.24
2018-07-22T23:56:46.690Z,78.64
2018-07-22T23:59:15.546Z,78.37
